sensor_id;sensor_type;location;lat;lon;timestamp;temperature;humidity
11505;DHT22;5809;53.262;10.408;2022-08-19T00:01:22;19.00;99.90
11505;DHT22;5809;53.262;10.408;2022-08-19T00:03:49;19.00;99.90
11505;DHT22;5809;53.262;10.408;2022-08-19T00:06:17;19.00;99.90
11505;DHT22;5809;53.262;10.408;2022-08-19T00:08:44;18.90;99.90
11505;DHT22;5809;53.262;10.408;2022-08-19T00:11:12;18.90;99.90
11505;DHT22;5809;53.262;10.408;2022-08-19T00:13:40;18.90;99.90
11505;DHT22;5809;53.262;10.408;2022-08-19T00:16:07;18.80;99.90
11505;DHT22;5809;53.262;10.408;2022-08-19T00:18:34;15.70;99.90
11505;DHT22;5809;53.262;10.408;2022-08-19T00:21:01;18.80;99.90
11505;DHT22;5809;53.262;10.408;2022-08-19T00:23:34;14.80;99.90
11505;DHT22;5809;53.262;10.408;2022-08-19T00:26:02;18.70;99.90
11505;DHT22;5809;53.262;10.408;2022-08-19T00:28:30;18.70;99.90
11505;DHT22;5809;53.262;10.408;2022-08-19T00:30:58;18.70;99.90
11505;DHT22;5809;53.262;10.408;2022-08-19T00:33:25;18.70;99.90
11505;DHT22;5809;53.262;10.408;2022-08-19T00:35:54;18.60;99.90
11505;DHT22;5809;53.262;10.408;2022-08-19T00:38:21;18.60;99.90
11505;DHT22;5809;53.262;10.408;2022-08-19T00:40:48;18.60;99.90
11505;DHT22;5809;53.262;10.408;2022-08-19T00:43:19;18.60;99.90
11505;DHT22;5809;53.262;10.408;2022-08-19T00:45:48;18.60;99.90
11505;DHT22;5809;53.262;10.408;2022-08-19T00:48:15;18.60;99.90
11505;DHT22;5809;53.262;10.408;2022-08-19T00:50:43;18.60;99.90
11505;DHT22;5809;53.262;10.408;2022-08-19T00:53:12;18.60;99.90
11505;DHT22;5809;53.262;10.408;2022-08-19T00:55:42;18.60;99.90
11505;DHT22;5809;53.262;10.408;2022-08-19T00:58:15;18.60;99.90
11505;DHT22;5809;53.262;10.408;2022-08-19T01:00:43;18.60;99.90
11505;DHT22;5809;53.262;10.408;2022-08-19T01:03:14;18.60;99.90
11505;DHT22;5809;53.262;10.408;2022-08-19T01:05:44;18.60;99.90
11505;DHT22;5809;53.262;10.408;2022-08-19T01:08:12;18.70;99.90
11505;DHT22;5809;53.262;10.408;2022-08-19T01:10:44;18.60;99.90
11505;DHT22;5809;53.262;10.408;2022-08-19T01:13:13;18.60;99.90
11505;DHT22;5809;53.262;10.408;2022-08-19T01:15:44;18.60;99.90
11505;DHT22;5809;53.262;10.408;2022-08-19T01:18:15;20.60;99.90
11505;DHT22;5809;53.262;10.408;2022-08-19T01:20:43;18.60;99.90
11505;DHT22;5809;53.262;10.408;2022-08-19T01:23:13;18.60;99.90
11505;DHT22;5809;53.262;10.408;2022-08-19T01:25:44;18.50;99.90
11505;DHT22;5809;53.262;10.408;2022-08-19T01:30:44;18.60;99.90
11505;DHT22;5809;53.262;10.408;2022-08-19T01:33:12;18.50;99.90
11505;DHT22;5809;53.262;10.408;2022-08-19T01:35:40;18.50;99.90
11505;DHT22;5809;53.262;10.408;2022-08-19T01:38:19;18.50;99.90
11505;DHT22;5809;53.262;10.408;2022-08-19T01:40:47;18.50;99.90
11505;DHT22;5809;53.262;10.408;2022-08-19T01:45:41;18.50;99.90
11505;DHT22;5809;53.262;10.408;2022-08-19T01:53:07;18.50;99.90
11505;DHT22;5809;53.262;10.408;2022-08-19T01:58:05;18.50;99.90
11505;DHT22;5809;53.262;10.408;2022-08-19T02:00:33;19.00;99.90
11505;DHT22;5809;53.262;10.408;2022-08-19T02:05:27;18.40;99.90
11505;DHT22;5809;53.262;10.408;2022-08-19T02:15:20;18.30;99.90
11505;DHT22;5809;53.262;10.408;2022-08-19T02:20:15;18.30;99.90
11505;DHT22;5809;53.262;10.408;2022-08-19T02:22:42;18.30;99.90
11505;DHT22;5809;53.262;10.408;2022-08-19T02:32:35;18.20;99.90
11505;DHT22;5809;53.262;10.408;2022-08-19T02:37:29;18.20;99.90
11505;DHT22;5809;53.262;10.408;2022-08-19T02:47:40;18.20;99.90
11505;DHT22;5809;53.262;10.408;2022-08-19T02:50:08;18.20;99.90
11505;DHT22;5809;53.262;10.408;2022-08-19T02:59:58;16.20;99.90
11505;DHT22;5809;53.262;10.408;2022-08-19T03:02:25;18.10;99.90
11505;DHT22;5809;53.262;10.408;2022-08-19T03:04:54;18.10;99.90
11505;DHT22;5809;53.262;10.408;2022-08-19T03:17:11;18.10;99.90
11505;DHT22;5809;53.262;10.408;2022-08-19T03:19:38;18.20;99.90
11505;DHT22;5809;53.262;10.408;2022-08-19T03:22:06;18.20;99.90
11505;DHT22;5809;53.262;10.408;2022-08-19T03:27:00;18.20;99.90
11505;DHT22;5809;53.262;10.408;2022-08-19T03:29:29;18.20;99.90
11505;DHT22;5809;53.262;10.408;2022-08-19T03:31:58;18.20;99.90
11505;DHT22;5809;53.262;10.408;2022-08-19T03:34:28;18.30;99.90
11505;DHT22;5809;53.262;10.408;2022-08-19T03:36:57;18.30;99.90
11505;DHT22;5809;53.262;10.408;2022-08-19T03:39:27;18.30;99.90
11505;DHT22;5809;53.262;10.408;2022-08-19T03:41:54;18.30;99.90
11505;DHT22;5809;53.262;10.408;2022-08-19T03:46:52;18.30;99.90
11505;DHT22;5809;53.262;10.408;2022-08-19T03:49:22;18.30;99.90
11505;DHT22;5809;53.262;10.408;2022-08-19T03:51:50;18.30;99.90
11505;DHT22;5809;53.262;10.408;2022-08-19T03:54:19;18.30;99.90
11505;DHT22;5809;53.262;10.408;2022-08-19T03:56:50;18.30;99.90
11505;DHT22;5809;53.262;10.408;2022-08-19T03:59:19;18.30;99.90
11505;DHT22;5809;53.262;10.408;2022-08-19T04:01:47;18.40;99.90
11505;DHT22;5809;53.262;10.408;2022-08-19T04:04:14;18.30;99.90
11505;DHT22;5809;53.262;10.408;2022-08-19T04:06:41;18.30;99.90
11505;DHT22;5809;53.262;10.408;2022-08-19T04:09:10;18.30;99.90
11505;DHT22;5809;53.262;10.408;2022-08-19T04:11:39;18.30;99.90
11505;DHT22;5809;53.262;10.408;2022-08-19T04:14:08;18.30;99.90
11505;DHT22;5809;53.262;10.408;2022-08-19T04:16:36;18.30;99.90
11505;DHT22;5809;53.262;10.408;2022-08-19T04:19:04;18.30;99.90
11505;DHT22;5809;53.262;10.408;2022-08-19T04:28:58;18.30;99.90
11505;DHT22;5809;53.262;10.408;2022-08-19T04:31:28;18.30;99.90
11505;DHT22;5809;53.262;10.408;2022-08-19T04:33:57;18.30;99.90
11505;DHT22;5809;53.262;10.408;2022-08-19T04:36:27;18.30;99.90
11505;DHT22;5809;53.262;10.408;2022-08-19T04:38:55;18.30;99.90
11505;DHT22;5809;53.262;10.408;2022-08-19T04:44:08;18.40;99.90
11505;DHT22;5809;53.262;10.408;2022-08-19T04:46:37;18.40;99.90
11505;DHT22;5809;53.262;10.408;2022-08-19T04:49:06;18.40;99.90
11505;DHT22;5809;53.262;10.408;2022-08-19T04:51:34;18.40;99.90
11505;DHT22;5809;53.262;10.408;2022-08-19T05:03:53;18.40;99.90
11505;DHT22;5809;53.262;10.408;2022-08-19T05:06:21;18.40;99.90
11505;DHT22;5809;53.262;10.408;2022-08-19T05:11:17;18.40;99.90
11505;DHT22;5809;53.262;10.408;2022-08-19T05:13:45;18.50;99.90
11505;DHT22;5809;53.262;10.408;2022-08-19T05:16:14;18.50;99.90
11505;DHT22;5809;53.262;10.408;2022-08-19T05:18:43;18.50;99.90
11505;DHT22;5809;53.262;10.408;2022-08-19T05:21:29;18.50;99.90
11505;DHT22;5809;53.262;10.408;2022-08-19T05:24:15;18.60;99.90
11505;DHT22;5809;53.262;10.408;2022-08-19T05:26:44;18.60;99.90
11505;DHT22;5809;53.262;10.408;2022-08-19T05:29:12;18.70;99.90
11505;DHT22;5809;53.262;10.408;2022-08-19T05:39:06;18.70;99.90
11505;DHT22;5809;53.262;10.408;2022-08-19T05:41:33;18.70;99.90
11505;DHT22;5809;53.262;10.408;2022-08-19T05:44:02;18.70;99.90
11505;DHT22;5809;53.262;10.408;2022-08-19T05:53:54;18.60;99.90
11505;DHT22;5809;53.262;10.408;2022-08-19T06:01:17;18.80;99.90
11505;DHT22;5809;53.262;10.408;2022-08-19T06:03:45;18.80;99.90
11505;DHT22;5809;53.262;10.408;2022-08-19T06:06:14;18.90;99.90
11505;DHT22;5809;53.262;10.408;2022-08-19T06:11:22;18.90;99.90
11505;DHT22;5809;53.262;10.408;2022-08-19T06:18:49;19.10;99.90
11505;DHT22;5809;53.262;10.408;2022-08-19T06:21:18;19.10;99.90
11505;DHT22;5809;53.262;10.408;2022-08-19T06:23:45;19.10;99.90
11505;DHT22;5809;53.262;10.408;2022-08-19T06:26:13;19.20;99.90
11505;DHT22;5809;53.262;10.408;2022-08-19T06:28:41;19.30;99.90
11505;DHT22;5809;53.262;10.408;2022-08-19T06:36:15;19.30;99.90
11505;DHT22;5809;53.262;10.408;2022-08-19T06:38:42;19.30;99.90
11505;DHT22;5809;53.262;10.408;2022-08-19T06:43:36;19.20;99.90
11505;DHT22;5809;53.262;10.408;2022-08-19T06:46:10;19.20;99.90
11505;DHT22;5809;53.262;10.408;2022-08-19T06:48:38;19.20;99.90
11505;DHT22;5809;53.262;10.408;2022-08-19T06:51:06;19.30;99.90
11505;DHT22;5809;53.262;10.408;2022-08-19T06:56:00;19.30;99.90
11505;DHT22;5809;53.262;10.408;2022-08-19T06:58:28;19.20;99.90
11505;DHT22;5809;53.262;10.408;2022-08-19T07:03:29;19.10;99.90
11505;DHT22;5809;53.262;10.408;2022-08-19T07:08:24;19.00;99.90
11505;DHT22;5809;53.262;10.408;2022-08-19T07:15:48;18.90;99.90
11505;DHT22;5809;53.262;10.408;2022-08-19T07:18:16;18.90;99.90
11505;DHT22;5809;53.262;10.408;2022-08-19T07:20:44;18.80;99.90
11505;DHT22;5809;53.262;10.408;2022-08-19T07:23:11;18.80;99.90
11505;DHT22;5809;53.262;10.408;2022-08-19T07:25:39;18.70;99.90
11505;DHT22;5809;53.262;10.408;2022-08-19T07:28:06;18.70;99.90
11505;DHT22;5809;53.262;10.408;2022-08-19T07:30:37;18.70;99.90
11505;DHT22;5809;53.262;10.408;2022-08-19T07:33:06;18.60;99.90
11505;DHT22;5809;53.262;10.408;2022-08-19T07:35:33;18.70;99.90
11505;DHT22;5809;53.262;10.408;2022-08-19T07:38:02;18.70;99.90
11505;DHT22;5809;53.262;10.408;2022-08-19T07:40:30;18.80;99.90
11505;DHT22;5809;53.262;10.408;2022-08-19T07:42:57;18.80;99.90
11505;DHT22;5809;53.262;10.408;2022-08-19T07:45:24;18.90;99.90
11505;DHT22;5809;53.262;10.408;2022-08-19T07:47:52;18.80;99.90
11505;DHT22;5809;53.262;10.408;2022-08-19T07:50:20;18.90;99.90
11505;DHT22;5809;53.262;10.408;2022-08-19T07:52:48;18.90;99.90
11505;DHT22;5809;53.262;10.408;2022-08-19T07:55:19;18.90;99.90
11505;DHT22;5809;53.262;10.408;2022-08-19T07:57:46;18.80;99.90
11505;DHT22;5809;53.262;10.408;2022-08-19T08:00:14;18.90;99.90
11505;DHT22;5809;53.262;10.408;2022-08-19T08:02:42;18.90;99.90
11505;DHT22;5809;53.262;10.408;2022-08-19T08:05:09;18.80;99.90
11505;DHT22;5809;53.262;10.408;2022-08-19T08:07:53;17.80;99.90
11505;DHT22;5809;53.262;10.408;2022-08-19T08:10:39;18.70;99.90
11505;DHT22;5809;53.262;10.408;2022-08-19T08:13:06;18.70;99.90
11505;DHT22;5809;53.262;10.408;2022-08-19T08:15:33;18.70;99.90
11505;DHT22;5809;53.262;10.408;2022-08-19T08:18:00;18.70;99.90
11505;DHT22;5809;53.262;10.408;2022-08-19T08:20:28;18.60;99.90
11505;DHT22;5809;53.262;10.408;2022-08-19T08:22:55;18.60;99.90
11505;DHT22;5809;53.262;10.408;2022-08-19T08:25:41;18.60;99.90
11505;DHT22;5809;53.262;10.408;2022-08-19T08:28:08;18.60;99.90
11505;DHT22;5809;53.262;10.408;2022-08-19T08:30:35;18.60;99.90
11505;DHT22;5809;53.262;10.408;2022-08-19T08:33:05;18.70;99.90
11505;DHT22;5809;53.262;10.408;2022-08-19T08:35:32;18.70;99.90
11505;DHT22;5809;53.262;10.408;2022-08-19T08:38:00;18.70;99.90
11505;DHT22;5809;53.262;10.408;2022-08-19T08:40:38;18.80;99.90
11505;DHT22;5809;53.262;10.408;2022-08-19T08:43:11;18.80;99.90
11505;DHT22;5809;53.262;10.408;2022-08-19T08:45:47;18.80;99.90
11505;DHT22;5809;53.262;10.408;2022-08-19T08:48:19;18.80;99.90
11505;DHT22;5809;53.262;10.408;2022-08-19T08:50:47;18.80;99.90
11505;DHT22;5809;53.262;10.408;2022-08-19T08:53:17;18.80;99.90
11505;DHT22;5809;53.262;10.408;2022-08-19T08:55:45;18.80;99.90
11505;DHT22;5809;53.262;10.408;2022-08-19T08:58:20;18.80;99.90
11505;DHT22;5809;53.262;10.408;2022-08-19T09:00:50;18.80;99.90
11505;DHT22;5809;53.262;10.408;2022-08-19T09:03:19;18.80;99.90
11505;DHT22;5809;53.262;10.408;2022-08-19T09:05:56;18.90;99.90
11505;DHT22;5809;53.262;10.408;2022-08-19T09:08:33;18.80;99.90
11505;DHT22;5809;53.262;10.408;2022-08-19T09:11:06;18.90;99.90
11505;DHT22;5809;53.262;10.408;2022-08-19T09:13:41;18.80;99.90
11505;DHT22;5809;53.262;10.408;2022-08-19T09:16:15;18.80;99.90
11505;DHT22;5809;53.262;10.408;2022-08-19T09:18:44;18.80;99.90
11505;DHT22;5809;53.262;10.408;2022-08-19T09:21:12;18.80;99.90
11505;DHT22;5809;53.262;10.408;2022-08-19T09:23:39;18.90;99.90
11505;DHT22;5809;53.262;10.408;2022-08-19T09:26:08;18.80;99.90
11505;DHT22;5809;53.262;10.408;2022-08-19T09:28:37;18.90;99.90
11505;DHT22;5809;53.262;10.408;2022-08-19T09:31:04;18.90;99.90
11505;DHT22;5809;53.262;10.408;2022-08-19T09:33:30;18.90;99.90
11505;DHT22;5809;53.262;10.408;2022-08-19T09:36:03;18.90;99.90
11505;DHT22;5809;53.262;10.408;2022-08-19T09:38:30;19.00;99.90
11505;DHT22;5809;53.262;10.408;2022-08-19T09:41:03;19.10;99.90
11505;DHT22;5809;53.262;10.408;2022-08-19T09:43:31;19.10;99.90
11505;DHT22;5809;53.262;10.408;2022-08-19T09:46:00;19.20;99.90
11505;DHT22;5809;53.262;10.408;2022-08-19T09:48:27;19.20;99.90
11505;DHT22;5809;53.262;10.408;2022-08-19T09:50:54;19.20;99.90
11505;DHT22;5809;53.262;10.408;2022-08-19T09:53:21;19.30;99.90
11505;DHT22;5809;53.262;10.408;2022-08-19T09:55:48;19.20;99.90
11505;DHT22;5809;53.262;10.408;2022-08-19T09:58:16;19.30;99.90
11505;DHT22;5809;53.262;10.408;2022-08-19T10:00:42;19.30;99.90
11505;DHT22;5809;53.262;10.408;2022-08-19T10:03:12;19.30;99.90
11505;DHT22;5809;53.262;10.408;2022-08-19T10:05:39;19.30;99.90
11505;DHT22;5809;53.262;10.408;2022-08-19T10:08:16;19.30;99.90
11505;DHT22;5809;53.262;10.408;2022-08-19T10:10:44;19.40;99.90
11505;DHT22;5809;53.262;10.408;2022-08-19T10:13:12;19.50;99.90
11505;DHT22;5809;53.262;10.408;2022-08-19T10:15:39;19.50;99.90
11505;DHT22;5809;53.262;10.408;2022-08-19T10:18:06;19.50;99.90
11505;DHT22;5809;53.262;10.408;2022-08-19T10:20:35;19.50;99.90
11505;DHT22;5809;53.262;10.408;2022-08-19T10:23:03;19.60;99.90
11505;DHT22;5809;53.262;10.408;2022-08-19T10:25:29;19.70;99.90
11505;DHT22;5809;53.262;10.408;2022-08-19T10:27:59;19.70;99.90
11505;DHT22;5809;53.262;10.408;2022-08-19T10:30:26;19.80;99.90
11505;DHT22;5809;53.262;10.408;2022-08-19T10:32:53;19.90;99.90
11505;DHT22;5809;53.262;10.408;2022-08-19T10:35:20;19.90;99.90
11505;DHT22;5809;53.262;10.408;2022-08-19T10:37:49;19.90;99.90
11505;DHT22;5809;53.262;10.408;2022-08-19T10:40:16;19.90;99.90
11505;DHT22;5809;53.262;10.408;2022-08-19T10:42:42;19.80;99.90
11505;DHT22;5809;53.262;10.408;2022-08-19T10:45:10;19.90;99.90
11505;DHT22;5809;53.262;10.408;2022-08-19T10:47:37;20.00;99.90
11505;DHT22;5809;53.262;10.408;2022-08-19T10:50:05;20.10;99.90
11505;DHT22;5809;53.262;10.408;2022-08-19T10:52:51;20.20;99.90
11505;DHT22;5809;53.262;10.408;2022-08-19T10:55:20;20.20;99.90
11505;DHT22;5809;53.262;10.408;2022-08-19T10:58:10;20.20;99.90
11505;DHT22;5809;53.262;10.408;2022-08-19T11:00:37;20.30;99.90
11505;DHT22;5809;53.262;10.408;2022-08-19T11:03:05;20.30;99.90
11505;DHT22;5809;53.262;10.408;2022-08-19T11:05:32;20.30;99.90
11505;DHT22;5809;53.262;10.408;2022-08-19T11:08:00;20.40;99.90
11505;DHT22;5809;53.262;10.408;2022-08-19T11:10:27;20.40;99.90
11505;DHT22;5809;53.262;10.408;2022-08-19T11:12:54;20.50;99.90
11505;DHT22;5809;53.262;10.408;2022-08-19T11:15:22;20.50;99.90
11505;DHT22;5809;53.262;10.408;2022-08-19T11:17:49;20.60;99.90
11505;DHT22;5809;53.262;10.408;2022-08-19T11:20:17;20.60;99.90
11505;DHT22;5809;53.262;10.408;2022-08-19T11:22:44;20.70;99.90
11505;DHT22;5809;53.262;10.408;2022-08-19T11:25:13;20.70;99.90
11505;DHT22;5809;53.262;10.408;2022-08-19T11:27:40;20.90;99.90
11505;DHT22;5809;53.262;10.408;2022-08-19T11:30:10;20.90;99.90
11505;DHT22;5809;53.262;10.408;2022-08-19T11:32:38;21.10;99.90
11505;DHT22;5809;53.262;10.408;2022-08-19T11:35:05;21.20;99.90
11505;DHT22;5809;53.262;10.408;2022-08-19T11:37:32;21.30;99.90
11505;DHT22;5809;53.262;10.408;2022-08-19T11:40:04;21.40;99.90
11505;DHT22;5809;53.262;10.408;2022-08-19T11:42:33;21.40;99.90
11505;DHT22;5809;53.262;10.408;2022-08-19T11:45:16;21.50;99.90
11505;DHT22;5809;53.262;10.408;2022-08-19T11:47:43;21.60;99.90
11505;DHT22;5809;53.262;10.408;2022-08-19T11:50:11;21.50;99.90
11505;DHT22;5809;53.262;10.408;2022-08-19T11:52:38;21.60;99.90
11505;DHT22;5809;53.262;10.408;2022-08-19T11:55:06;21.50;99.90
11505;DHT22;5809;53.262;10.408;2022-08-19T11:57:35;21.60;99.90
11505;DHT22;5809;53.262;10.408;2022-08-19T12:00:04;21.50;99.90
11505;DHT22;5809;53.262;10.408;2022-08-19T12:02:33;21.70;99.90
11505;DHT22;5809;53.262;10.408;2022-08-19T12:05:00;21.80;99.90
11505;DHT22;5809;53.262;10.408;2022-08-19T12:07:28;22.00;99.90
11505;DHT22;5809;53.262;10.408;2022-08-19T12:09:57;22.10;99.90
11505;DHT22;5809;53.262;10.408;2022-08-19T12:12:24;21.90;99.90
11505;DHT22;5809;53.262;10.408;2022-08-19T12:14:53;21.90;99.90
11505;DHT22;5809;53.262;10.408;2022-08-19T12:17:24;21.90;99.90
11505;DHT22;5809;53.262;10.408;2022-08-19T12:19:51;22.00;99.90
11505;DHT22;5809;53.262;10.408;2022-08-19T12:22:18;21.90;99.90
11505;DHT22;5809;53.262;10.408;2022-08-19T12:24:46;21.90;99.90
11505;DHT22;5809;53.262;10.408;2022-08-19T12:27:13;22.00;99.90
11505;DHT22;5809;53.262;10.408;2022-08-19T12:29:40;21.90;99.90
11505;DHT22;5809;53.262;10.408;2022-08-19T12:32:08;21.80;99.90
11505;DHT22;5809;53.262;10.408;2022-08-19T12:34:35;21.80;99.90
11505;DHT22;5809;53.262;10.408;2022-08-19T12:37:04;22.00;99.90
11505;DHT22;5809;53.262;10.408;2022-08-19T12:39:35;22.10;99.90
11505;DHT22;5809;53.262;10.408;2022-08-19T12:42:02;22.20;99.90
11505;DHT22;5809;53.262;10.408;2022-08-19T12:44:29;22.20;99.90
11505;DHT22;5809;53.262;10.408;2022-08-19T12:46:57;22.20;99.90
11505;DHT22;5809;53.262;10.408;2022-08-19T12:49:27;22.30;99.90
11505;DHT22;5809;53.262;10.408;2022-08-19T12:51:54;22.10;99.90
11505;DHT22;5809;53.262;10.408;2022-08-19T12:54:21;22.10;99.90
11505;DHT22;5809;53.262;10.408;2022-08-19T12:56:48;22.00;99.90
11505;DHT22;5809;53.262;10.408;2022-08-19T12:59:15;22.00;99.90
11505;DHT22;5809;53.262;10.408;2022-08-19T13:01:43;22.00;99.90
11505;DHT22;5809;53.262;10.408;2022-08-19T13:04:11;22.20;99.90
11505;DHT22;5809;53.262;10.408;2022-08-19T13:06:39;22.40;99.90
11505;DHT22;5809;53.262;10.408;2022-08-19T13:09:06;22.80;99.90
11505;DHT22;5809;53.262;10.408;2022-08-19T13:11:33;23.00;99.90
11505;DHT22;5809;53.262;10.408;2022-08-19T13:14:01;23.20;99.90
11505;DHT22;5809;53.262;10.408;2022-08-19T13:16:29;23.30;99.90
11505;DHT22;5809;53.262;10.408;2022-08-19T13:18:57;23.60;99.90
11505;DHT22;5809;53.262;10.408;2022-08-19T13:21:26;23.70;99.90
11505;DHT22;5809;53.262;10.408;2022-08-19T13:23:57;23.70;99.90
11505;DHT22;5809;53.262;10.408;2022-08-19T13:26:23;23.70;99.90
11505;DHT22;5809;53.262;10.408;2022-08-19T13:28:50;23.40;99.90
11505;DHT22;5809;53.262;10.408;2022-08-19T13:31:39;23.30;99.90
11505;DHT22;5809;53.262;10.408;2022-08-19T13:34:28;23.30;99.90
11505;DHT22;5809;53.262;10.408;2022-08-19T13:36:55;23.90;99.90
11505;DHT22;5809;53.262;10.408;2022-08-19T13:39:24;24.30;99.90
11505;DHT22;5809;53.262;10.408;2022-08-19T13:41:51;24.20;99.90
11505;DHT22;5809;53.262;10.408;2022-08-19T13:44:18;24.20;99.90
11505;DHT22;5809;53.262;10.408;2022-08-19T13:46:45;24.10;99.90
11505;DHT22;5809;53.262;10.408;2022-08-19T13:49:13;24.10;99.90
11505;DHT22;5809;53.262;10.408;2022-08-19T13:51:41;24.00;99.90
11505;DHT22;5809;53.262;10.408;2022-08-19T13:56:40;23.90;99.90
11505;DHT22;5809;53.262;10.408;2022-08-19T13:59:08;24.30;99.90
11505;DHT22;5809;53.262;10.408;2022-08-19T14:01:35;24.90;99.90
11505;DHT22;5809;53.262;10.408;2022-08-19T14:04:03;25.00;99.90
11505;DHT22;5809;53.262;10.408;2022-08-19T14:06:31;25.10;99.90
11505;DHT22;5809;53.262;10.408;2022-08-19T14:08:58;25.50;99.90
11505;DHT22;5809;53.262;10.408;2022-08-19T14:11:25;25.60;99.90
11505;DHT22;5809;53.262;10.408;2022-08-19T14:13:54;25.20;99.90
11505;DHT22;5809;53.262;10.408;2022-08-19T14:16:21;25.00;99.90
11505;DHT22;5809;53.262;10.408;2022-08-19T14:18:48;24.80;99.90
11505;DHT22;5809;53.262;10.408;2022-08-19T14:21:16;24.20;99.90
11505;DHT22;5809;53.262;10.408;2022-08-19T14:23:43;24.20;99.90
11505;DHT22;5809;53.262;10.408;2022-08-19T14:26:14;24.10;99.90
11505;DHT22;5809;53.262;10.408;2022-08-19T14:28:41;24.10;99.90
11505;DHT22;5809;53.262;10.408;2022-08-19T14:31:11;24.10;99.90
11505;DHT22;5809;53.262;10.408;2022-08-19T14:33:38;24.20;99.90
11505;DHT22;5809;53.262;10.408;2022-08-19T14:36:06;24.30;99.90
11505;DHT22;5809;53.262;10.408;2022-08-19T14:38:33;24.40;99.90
11505;DHT22;5809;53.262;10.408;2022-08-19T14:41:11;24.60;99.90
11505;DHT22;5809;53.262;10.408;2022-08-19T14:43:39;24.70;99.90
11505;DHT22;5809;53.262;10.408;2022-08-19T14:46:07;25.30;99.90
11505;DHT22;5809;53.262;10.408;2022-08-19T14:48:37;26.90;99.90
11505;DHT22;5809;53.262;10.408;2022-08-19T14:51:04;28.40;99.90
11505;DHT22;5809;53.262;10.408;2022-08-19T14:53:32;29.20;99.90
11505;DHT22;5809;53.262;10.408;2022-08-19T14:56:00;29.00;99.90
11505;DHT22;5809;53.262;10.408;2022-08-19T14:58:28;28.90;99.90
11505;DHT22;5809;53.262;10.408;2022-08-19T15:00:55;28.60;99.90
11505;DHT22;5809;53.262;10.408;2022-08-19T15:03:22;28.20;99.90
11505;DHT22;5809;53.262;10.408;2022-08-19T15:05:51;28.20;99.90
11505;DHT22;5809;53.262;10.408;2022-08-19T15:08:18;28.60;99.90
11505;DHT22;5809;53.262;10.408;2022-08-19T15:10:46;28.70;99.90
11505;DHT22;5809;53.262;10.408;2022-08-19T15:13:13;28.20;99.90
11505;DHT22;5809;53.262;10.408;2022-08-19T15:15:40;27.70;99.90
11505;DHT22;5809;53.262;10.408;2022-08-19T15:18:07;27.10;99.90
11505;DHT22;5809;53.262;10.408;2022-08-19T15:20:36;26.70;99.90
11505;DHT22;5809;53.262;10.408;2022-08-19T15:23:04;26.40;99.90
11505;DHT22;5809;53.262;10.408;2022-08-19T15:25:31;25.90;99.90
11505;DHT22;5809;53.262;10.408;2022-08-19T15:27:59;25.70;99.90
11505;DHT22;5809;53.262;10.408;2022-08-19T15:30:28;25.40;99.90
11505;DHT22;5809;53.262;10.408;2022-08-19T15:32:57;28.80;99.90
11505;DHT22;5809;53.262;10.408;2022-08-19T15:35:24;25.50;99.90
11505;DHT22;5809;53.262;10.408;2022-08-19T15:37:53;25.50;99.90
11505;DHT22;5809;53.262;10.408;2022-08-19T15:40:22;25.30;99.90
11505;DHT22;5809;53.262;10.408;2022-08-19T15:42:49;25.00;99.90
11505;DHT22;5809;53.262;10.408;2022-08-19T15:45:19;24.60;99.90
11505;DHT22;5809;53.262;10.408;2022-08-19T15:47:47;24.50;99.90
11505;DHT22;5809;53.262;10.408;2022-08-19T15:50:17;24.50;99.90
11505;DHT22;5809;53.262;10.408;2022-08-19T15:52:47;24.70;99.90
11505;DHT22;5809;53.262;10.408;2022-08-19T15:55:14;24.90;99.90
11505;DHT22;5809;53.262;10.408;2022-08-19T15:57:43;25.00;99.90
11505;DHT22;5809;53.262;10.408;2022-08-19T16:00:27;25.10;99.90
11505;DHT22;5809;53.262;10.408;2022-08-19T16:03:13;25.20;99.90
11505;DHT22;5809;53.262;10.408;2022-08-19T16:05:59;25.10;99.90
11505;DHT22;5809;53.262;10.408;2022-08-19T16:08:43;25.00;99.90
11505;DHT22;5809;53.262;10.408;2022-08-19T16:11:11;24.80;99.90
11505;DHT22;5809;53.262;10.408;2022-08-19T16:13:40;24.70;99.90
11505;DHT22;5809;53.262;10.408;2022-08-19T16:16:08;24.70;99.90
11505;DHT22;5809;53.262;10.408;2022-08-19T16:18:35;24.70;99.90
11505;DHT22;5809;53.262;10.408;2022-08-19T16:21:03;24.60;99.90
11505;DHT22;5809;53.262;10.408;2022-08-19T16:23:31;24.50;99.90
11505;DHT22;5809;53.262;10.408;2022-08-19T16:25:58;24.60;99.90
11505;DHT22;5809;53.262;10.408;2022-08-19T16:28:25;24.50;99.90
11505;DHT22;5809;53.262;10.408;2022-08-19T16:30:54;24.40;99.90
11505;DHT22;5809;53.262;10.408;2022-08-19T16:33:20;24.40;99.90
11505;DHT22;5809;53.262;10.408;2022-08-19T16:35:47;24.30;99.90
11505;DHT22;5809;53.262;10.408;2022-08-19T16:38:14;24.20;99.90
11505;DHT22;5809;53.262;10.408;2022-08-19T16:40:41;24.10;99.90
11505;DHT22;5809;53.262;10.408;2022-08-19T16:43:08;24.10;99.90
11505;DHT22;5809;53.262;10.408;2022-08-19T16:45:35;24.00;99.90
11505;DHT22;5809;53.262;10.408;2022-08-19T16:48:04;24.00;99.90
11505;DHT22;5809;53.262;10.408;2022-08-19T16:50:31;23.90;99.90
11505;DHT22;5809;53.262;10.408;2022-08-19T16:52:59;23.90;99.90
11505;DHT22;5809;53.262;10.408;2022-08-19T16:55:26;23.80;99.90
11505;DHT22;5809;53.262;10.408;2022-08-19T16:57:53;23.80;99.90
11505;DHT22;5809;53.262;10.408;2022-08-19T17:00:20;23.60;99.90
11505;DHT22;5809;53.262;10.408;2022-08-19T17:02:47;23.50;99.90
11505;DHT22;5809;53.262;10.408;2022-08-19T17:05:16;23.40;99.90
11505;DHT22;5809;53.262;10.408;2022-08-19T17:07:44;23.30;99.90
11505;DHT22;5809;53.262;10.408;2022-08-19T17:10:11;23.30;99.90
11505;DHT22;5809;53.262;10.408;2022-08-19T17:12:37;23.20;99.90
11505;DHT22;5809;53.262;10.408;2022-08-19T17:15:06;23.10;99.90
11505;DHT22;5809;53.262;10.408;2022-08-19T17:17:34;23.10;99.90
11505;DHT22;5809;53.262;10.408;2022-08-19T17:20:02;23.20;99.90
11505;DHT22;5809;53.262;10.408;2022-08-19T17:22:32;23.10;99.90
11505;DHT22;5809;53.262;10.408;2022-08-19T17:25:01;23.10;99.90
11505;DHT22;5809;53.262;10.408;2022-08-19T17:27:28;23.10;99.90
11505;DHT22;5809;53.262;10.408;2022-08-19T17:29:55;23.10;99.90
11505;DHT22;5809;53.262;10.408;2022-08-19T17:32:24;23.10;99.90
11505;DHT22;5809;53.262;10.408;2022-08-19T17:34:52;23.00;99.90
11505;DHT22;5809;53.262;10.408;2022-08-19T17:37:19;23.00;99.90
11505;DHT22;5809;53.262;10.408;2022-08-19T17:39:48;22.90;99.90
11505;DHT22;5809;53.262;10.408;2022-08-19T17:42:15;22.90;99.90
11505;DHT22;5809;53.262;10.408;2022-08-19T17:44:42;22.90;99.90
11505;DHT22;5809;53.262;10.408;2022-08-19T17:47:09;22.80;99.90
11505;DHT22;5809;53.262;10.408;2022-08-19T17:49:37;22.80;99.90
11505;DHT22;5809;53.262;10.408;2022-08-19T17:52:04;22.70;99.90
11505;DHT22;5809;53.262;10.408;2022-08-19T17:54:31;22.60;99.90
11505;DHT22;5809;53.262;10.408;2022-08-19T17:56:59;22.50;99.90